Continental Highway — H9LY — position and weather

sailwx.info

Track history (hours):
 
Tides and Currents Weather Stations Pressure Air Temp Water Temp Dewpoint Dewpoint Depression Visibility Wind Speed Wind Dir Waves Ship Positions

Continental Highway

Last reported at 2016-Jul-27 09:19 UTC. Time now 2016-Jul-27 13:28 UTC.
Position N 39°48' W 130°18'.

Length 199.9 m; beam 32.2 m.

Type: Cargo ship. MMSI: 351223000.

Date/timePositionNaut miles runAvg speedWind from/ knotsBaromVisibWave heightAir tempDewpointWater temp
2016-Jul-27 09:19N 39°48' W 130°18'13114.7
2016-Jul-27 00:24N 38°38' W 127°56'1214.4
2016-Jul-26 23:32N 38°35' W 127°41'11013.6
2016-Jul-26 15:27N 38°03' W 125°26'3813.2
2016-Jul-26 12:33N 37°52' W 124°40'1413.5
2016-Jul-26 11:31N 37°47' W 124°23'1413.5
2016-Jul-26 10:31N 37°43' W 124°07'1313.9
2016-Jul-26 09:33N 37°39' W 123°51'1514.6
2016-Jul-26 08:34N 37°35' W 123°33'1414.1
2016-Jul-26 07:33N 37°31' W 123°16'9 9.4
2016-Jul-26 06:34N 37°34' W 123°05'10 9.7
2016-Jul-26 05:34N 37°39' W 122°55'10 9.9
2016-Jul-26 04:33N 37°45' W 122°45'9 9.3
2016-Jul-26 03:33N 37°48' W 122°33'8 8.1
2016-Jul-26 02:34N 37°53' W 122°26'1111.2
2016-Jul-26 01:33N 38°03' W 122°20'9 9.1
2016-Jul-26 00:33N 38°02' W 122°08'0 0.0
2016-Jul-25 09:29N 38°02' W 122°08'7 7.8
2016-Jul-25 08:33N 38°03' W 122°17'1212.0
2016-Jul-25 07:33N 37°54' W 122°26'8 8.3
2016-Jul-25 06:33N 37°47' W 122°33'8 8.3
2016-Jul-25 05:33N 37°41' W 122°40'8 8.4
2016-Jul-25 04:33N 37°33' W 122°40'8 7.8
2016-Jul-25 03:33N 37°25' W 122°40'9 9.5
2016-Jul-25 02:33N 37°16' W 122°39'1414.0
2016-Jul-25 01:33N 37°02' W 122°34'6 5.8
2016-Jul-25 00:33N 36°57' W 122°31'1414.5
2016-Jul-24 23:33N 36°43' W 122°25'1515.1
2016-Jul-24 22:33N 36°29' W 122°18'1514.9
2016-Jul-24 21:33N 36°15' W 122°11'1515.3
2016-Jul-24 20:33N 36°01' W 122°05'1514.7
2016-Jul-24 19:33N 35°47' W 121°58'1514.9
2016-Jul-24 18:33N 35°34' W 121°50'1515.4
2016-Jul-24 17:33N 35°20' W 121°41'1515.1
2016-Jul-24 16:33N 35°07' W 121°33'1514.7
2016-Jul-24 15:33N 34°53' W 121°26'1514.6
2016-Jul-24 14:33N 34°40' W 121°18'1514.8
2016-Jul-24 13:33N 34°27' W 121°10'1514.6
2016-Jul-24 12:33N 34°14' W 121°02'1514.6
2016-Jul-24 11:34N 34°03' W 120°51'1515.0
2016-Jul-24 10:33N 33°53' W 120°37'1515.3
2016-Jul-24 09:33N 33°44' W 120°22'1515.0
2016-Jul-24 08:33N 33°38' W 120°06'2116.6
2016-Jul-24 07:19N 33°38' W 119°41'1316.4
2016-Jul-24 06:33N 33°38' W 119°26'1615.8
2016-Jul-24 05:33N 33°38' W 119°07'1212.0
2016-Jul-24 04:33N 33°37' W 118°53'1211.8
2016-Jul-24 03:33N 33°37' W 118°39'1211.8
2016-Jul-24 02:33N 33°36' W 118°24'1010.3
2016-Jul-24 01:33N 33°39' W 118°13'6 6.1
2016-Jul-24 00:33N 33°46' W 118°13'1 0.7
2016-Jul-23 23:27N 33°46' W 118°13'0 0.0
2016-Jul-23 22:33N 33°46' W 118°13'0 0.0
2016-Jul-23 21:27N 33°46' W 118°13'0 0.0
2016-Jul-23 20:21N 33°46' W 118°13'0 0.0
2016-Jul-23 19:33N 33°46' W 118°13'0 0.0
2016-Jul-23 18:33N 33°46' W 118°13'0 0.0
2016-Jul-23 17:33N 33°46' W 118°13'0 0.0
2016-Jul-23 16:33N 33°46' W 118°13'0 0.0
2016-Jul-23 15:33N 33°46' W 118°13'0 0.0
2016-Jul-23 14:33N 33°46' W 118°13'0 0.0
2016-Jul-23 13:33N 33°46' W 118°13'0 0.3
2016-Jul-23 12:33N 33°46' W 118°13'6 6.0
2016-Jul-23 11:33N 33°40' W 118°11'1010.5
2016-Jul-23 10:33N 33°36' W 118°23'1211.9
2016-Jul-23 09:33N 33°37' W 118°37'1212.0
2016-Jul-23 08:34N 33°37' W 118°51'1211.9
2016-Jul-23 07:33N 33°38' W 119°06'1515.4
2016-Jul-23 06:33N 33°38' W 119°24'3115.3
2016-Jul-23 04:33N 33°37' W 120°01'1515.4
2016-Jul-23 03:33N 33°36' W 120°19'1211.7
2016-Jul-23 02:34N 33°36' W 120°33'1514.6
2016-Jul-23 01:33N 33°36' W 120°51'1615.8
2016-Jul-23 00:33N 33°36' W 121°10'1615.6
2016-Jul-22 23:33N 33°37' W 121°28'1616.2
2016-Jul-22 22:34N 33°37' W 121°48'1615.7
2016-Jul-22 21:34N 33°37' W 122°07'1616.2
2016-Jul-22 20:33N 33°38' W 122°26'1616.1
2016-Jul-22 19:33N 33°38' W 122°45'1616.0
2016-Jul-22 18:34N 33°38' W 123°05'1615.8
2016-Jul-22 17:33N 33°39' W 123°24'1616.2
2016-Jul-22 16:33N 33°39' W 123°43'1616.2
2016-Jul-22 15:33N 33°40' W 124°02'1616.0
2016-Jul-22 14:33N 33°40' W 124°22'1515.0
2016-Jul-22 13:33N 33°45' W 124°39'1615.7
2016-Jul-22 12:33N 33°53' W 124°55'1515.1
2016-Jul-22 11:33N 34°01' W 125°10'1515.0
2016-Jul-22 10:33N 34°09' W 125°26'1515.2
2016-Jul-22 09:32N 34°17' W 125°41'1615.2
2016-Jul-22 08:29N 34°26' W 125°58'1415.4
2016-Jul-22 07:33N 34°33' W 126°13'  
Track history (hours):
 
Tides and Currents Weather Stations Pressure Air Temp Water Temp Dewpoint Dewpoint Depression Visibility Wind Speed Wind Dir Waves Ship Positions

Continental Highway

Last reported at 2016-Jul-27 09:19 UTC. Time now 2016-Jul-27 13:28 UTC.
Position N 39°48' W 130°18'.

Length 199.9 m; beam 32.2 m.

Type: Cargo ship. MMSI: 351223000.

Date/timePositionNaut miles runAvg speedWind from/ knotsBaromVisibWave heightAir tempDewpointWater temp
2016-Jul-27 09:19N 39°48' W 130°18'13114.7
2016-Jul-27 00:24N 38°38' W 127°56'1214.4
2016-Jul-26 23:32N 38°35' W 127°41'11013.6
2016-Jul-26 15:27N 38°03' W 125°26'3813.2
2016-Jul-26 12:33N 37°52' W 124°40'1413.5
2016-Jul-26 11:31N 37°47' W 124°23'1413.5
2016-Jul-26 10:31N 37°43' W 124°07'1313.9
2016-Jul-26 09:33N 37°39' W 123°51'1514.6
2016-Jul-26 08:34N 37°35' W 123°33'1414.1
2016-Jul-26 07:33N 37°31' W 123°16'9 9.4
2016-Jul-26 06:34N 37°34' W 123°05'10 9.7
2016-Jul-26 05:34N 37°39' W 122°55'10 9.9
2016-Jul-26 04:33N 37°45' W 122°45'9 9.3
2016-Jul-26 03:33N 37°48' W 122°33'8 8.1
2016-Jul-26 02:34N 37°53' W 122°26'1111.2
2016-Jul-26 01:33N 38°03' W 122°20'9 9.1
2016-Jul-26 00:33N 38°02' W 122°08'0 0.0
2016-Jul-25 09:29N 38°02' W 122°08'7 7.8
2016-Jul-25 08:33N 38°03' W 122°17'1212.0
2016-Jul-25 07:33N 37°54' W 122°26'8 8.3
2016-Jul-25 06:33N 37°47' W 122°33'8 8.3
2016-Jul-25 05:33N 37°41' W 122°40'8 8.4
2016-Jul-25 04:33N 37°33' W 122°40'8 7.8
2016-Jul-25 03:33N 37°25' W 122°40'9 9.5
2016-Jul-25 02:33N 37°16' W 122°39'1414.0
2016-Jul-25 01:33N 37°02' W 122°34'6 5.8
2016-Jul-25 00:33N 36°57' W 122°31'1414.5
2016-Jul-24 23:33N 36°43' W 122°25'1515.1
2016-Jul-24 22:33N 36°29' W 122°18'1514.9
2016-Jul-24 21:33N 36°15' W 122°11'1515.3
2016-Jul-24 20:33N 36°01' W 122°05'1514.7
2016-Jul-24 19:33N 35°47' W 121°58'1514.9
2016-Jul-24 18:33N 35°34' W 121°50'1515.4
2016-Jul-24 17:33N 35°20' W 121°41'1515.1
2016-Jul-24 16:33N 35°07' W 121°33'1514.7
2016-Jul-24 15:33N 34°53' W 121°26'1514.6
2016-Jul-24 14:33N 34°40' W 121°18'1514.8
2016-Jul-24 13:33N 34°27' W 121°10'1514.6
2016-Jul-24 12:33N 34°14' W 121°02'1514.6
2016-Jul-24 11:34N 34°03' W 120°51'1515.0
2016-Jul-24 10:33N 33°53' W 120°37'1515.3
2016-Jul-24 09:33N 33°44' W 120°22'1515.0
2016-Jul-24 08:33N 33°38' W 120°06'2116.6
2016-Jul-24 07:19N 33°38' W 119°41'1316.4
2016-Jul-24 06:33N 33°38' W 119°26'1615.8
2016-Jul-24 05:33N 33°38' W 119°07'1212.0
2016-Jul-24 04:33N 33°37' W 118°53'1211.8
2016-Jul-24 03:33N 33°37' W 118°39'1211.8
2016-Jul-24 02:33N 33°36' W 118°24'1010.3
2016-Jul-24 01:33N 33°39' W 118°13'6 6.1
2016-Jul-24 00:33N 33°46' W 118°13'1 0.7
2016-Jul-23 23:27N 33°46' W 118°13'0 0.0
2016-Jul-23 22:33N 33°46' W 118°13'0 0.0
2016-Jul-23 21:27N 33°46' W 118°13'0 0.0
2016-Jul-23 20:21N 33°46' W 118°13'0 0.0
2016-Jul-23 19:33N 33°46' W 118°13'0 0.0
2016-Jul-23 18:33N 33°46' W 118°13'0 0.0
2016-Jul-23 17:33N 33°46' W 118°13'0 0.0
2016-Jul-23 16:33N 33°46' W 118°13'0 0.0
2016-Jul-23 15:33N 33°46' W 118°13'0 0.0
2016-Jul-23 14:33N 33°46' W 118°13'0 0.0
2016-Jul-23 13:33N 33°46' W 118°13'0 0.3
2016-Jul-23 12:33N 33°46' W 118°13'6 6.0
2016-Jul-23 11:33N 33°40' W 118°11'1010.5
2016-Jul-23 10:33N 33°36' W 118°23'1211.9
2016-Jul-23 09:33N 33°37' W 118°37'1212.0
2016-Jul-23 08:34N 33°37' W 118°51'1211.9
2016-Jul-23 07:33N 33°38' W 119°06'1515.4
2016-Jul-23 06:33N 33°38' W 119°24'3115.3
2016-Jul-23 04:33N 33°37' W 120°01'1515.4
2016-Jul-23 03:33N 33°36' W 120°19'1211.7
2016-Jul-23 02:34N 33°36' W 120°33'1514.6
2016-Jul-23 01:33N 33°36' W 120°51'1615.8
2016-Jul-23 00:33N 33°36' W 121°10'1615.6
2016-Jul-22 23:33N 33°37' W 121°28'1616.2
2016-Jul-22 22:34N 33°37' W 121°48'1615.7
2016-Jul-22 21:34N 33°37' W 122°07'1616.2
2016-Jul-22 20:33N 33°38' W 122°26'1616.1
2016-Jul-22 19:33N 33°38' W 122°45'1616.0
2016-Jul-22 18:34N 33°38' W 123°05'1615.8
2016-Jul-22 17:33N 33°39' W 123°24'1616.2
2016-Jul-22 16:33N 33°39' W 123°43'1616.2
2016-Jul-22 15:33N 33°40' W 124°02'1616.0
2016-Jul-22 14:33N 33°40' W 124°22'1515.0
2016-Jul-22 13:33N 33°45' W 124°39'1615.7
2016-Jul-22 12:33N 33°53' W 124°55'1515.1
2016-Jul-22 11:33N 34°01' W 125°10'1515.0
2016-Jul-22 10:33N 34°09' W 125°26'1515.2
2016-Jul-22 09:32N 34°17' W 125°41'1615.2
2016-Jul-22 08:29N 34°26' W 125°58'1415.4
2016-Jul-22 07:33N 34°33' W 126°13'  

Dump ship's entire track history